Good Hope, Louisiana
Current Conditions -  °F | °C
As of 12:53 AM on Sunday 26 Oct 2014 (Local Time) from KMSY Reporting Station
Clear Clear  
Wind Chill: 62°   Ceiling: Unl
Heat Index: 62°   Visibility: 10mi
Dew Point: 58°   Wind: 5mph
Humidity: 86%   Direction: 280°W
Pressure: 30.07"   Gusts: NA
Location:  30.0285°N, 90.4077°W
Report Text: KMSY 260553Z 28004KT 10SM CLR 17/14 A3007 RMK AO2 SLP184 T01670144 10228 20167 402610128 58008
Loading
Personal Weather Stations






























Interactive Weather Map
Tropical Storm Tracking
New forecast layout! Learn more

10-Day Weather Forecast

Advertisements
Track Severe Weather on mobile